Time;durP1;ratioP1;P1;durP2;ratioP2;P2;SDS_P1;SDS_P2;PMS_P1;PMS_P2;Temp;Humidity;BMP_temperature;BMP_pressure;BME280_temperature;BME280_humidity;BME280_pressure;Samples;Min_cycle;Max_cycle;Signal;HPM_P1;HPM_P2
2022/03/09 00:02:07;;;;;;;58.30;24.27;;;;;;;-1.62;70.62;101500.12;1715088;83;20997;-72
2022/03/09 00:04:34;;;;;;;57.87;24.10;;;;;;;-1.63;70.47;101502.24;1714992;83;21017;-72
2022/03/09 00:07:01;;;;;;;57.27;26.60;;;;;;;-1.68;70.34;101502.09;1715168;83;20985;-72
2022/03/09 00:09:28;;;;;;;57.10;22.87;;;;;;;-1.66;70.87;101503.44;1714994;83;21048;-73
2022/03/09 00:11:55;;;;;;;50.83;23.73;;;;;;;-1.65;70.73;101503.88;1715172;83;21196;-73
2022/03/09 00:14:22;;;;;;;51.40;22.30;;;;;;;-1.73;70.54;101501.08;1714958;83;20996;-72
2022/03/09 00:16:50;;;;;;;44.07;20.93;;;;;;;-1.76;70.71;101498.41;1714964;83;21518;-72
2022/03/09 00:19:18;;;;;;;44.50;20.90;;;;;;;-1.78;70.66;101505.20;1714934;83;21012;-72
2022/03/09 00:21:45;;;;;;;48.93;21.20;;;;;;;-1.82;70.61;101500.80;1715256;83;21020;-72
2022/03/09 00:24:14;;;;;;;39.40;20.50;;;;;;;-1.83;70.67;101505.08;1714863;83;21990;-72
2022/03/09 00:26:42;;;;;;;39.60;19.90;;;;;;;-1.89;70.60;101495.86;1715162;83;21474;-72
2022/03/09 00:29:10;;;;;;;39.77;20.00;;;;;;;-1.91;70.74;101496.25;1714895;83;21028;-72
2022/03/09 00:31:38;;;;;;;38.73;18.97;;;;;;;-1.93;70.76;101499.17;1715234;83;21573;-74
2022/03/09 00:34:05;;;;;;;41.87;17.63;;;;;;;-1.95;70.80;101502.10;1714998;83;21503;-72
2022/03/09 00:36:32;;;;;;;37.07;17.13;;;;;;;-1.99;70.79;101496.42;1715102;83;22144;-72
2022/03/09 00:38:59;;;;;;;32.03;16.30;;;;;;;-2.00;70.87;101493.79;1714762;83;21028;-72
2022/03/09 00:41:26;;;;;;;42.40;18.00;;;;;;;-2.04;70.80;101497.55;1715222;83;20981;-72
2022/03/09 00:43:53;;;;;;;35.73;15.97;;;;;;;-2.07;70.92;101494.89;1714903;83;21056;-72
2022/03/09 00:46:20;;;;;;;38.60;18.27;;;;;;;-2.08;70.95;101491.87;1714916;83;21243;-73
2022/03/09 00:48:48;;;;;;;36.53;16.77;;;;;;;-2.09;71.01;101486.25;1715103;83;21959;-72
2022/03/09 00:51:15;;;;;;;40.97;20.37;;;;;;;-2.09;71.05;101484.97;1714802;83;21036;-72
2022/03/09 00:53:42;;;;;;;44.67;22.07;;;;;;;-2.10;71.14;101481.08;1715217;83;21044;-73
2022/03/09 00:56:10;;;;;;;42.23;20.27;;;;;;;-2.12;71.12;101477.16;1714904;83;20992;-72
2022/03/09 00:58:37;;;;;;;46.27;19.90;;;;;;;-2.16;71.11;101475.34;1715109;83;21480;-73
2022/03/09 01:01:05;;;;;;;45.33;20.23;;;;;;;-2.20;71.12;101481.19;1714827;83;21137;-72
2022/03/09 01:03:33;;;;;;;37.57;19.87;;;;;;;-2.17;71.57;101479.99;1715052;83;21009;-72
2022/03/09 01:06:00;;;;;;;41.50;18.97;;;;;;;-2.18;71.41;101482.53;1714956;83;21067;-73
2022/03/09 01:08:27;;;;;;;45.50;21.07;;;;;;;-2.21;71.35;101479.45;1715137;83;21001;-72
2022/03/09 01:10:54;;;;;;;36.80;18.53;;;;;;;-2.23;71.36;101479.80;1714958;83;21567;-72
2022/03/09 01:13:21;;;;;;;36.67;18.13;;;;;;;-2.26;71.38;101479.29;1714889;83;21202;-73
2022/03/09 01:15:49;;;;;;;37.77;17.87;;;;;;;-2.27;71.44;101475.41;1714977;83;20988;-72
2022/03/09 01:18:16;;;;;;;38.53;17.33;;;;;;;-2.29;71.41;101477.91;1713362;83;21492;-72
2022/03/09 01:20:44;;;;;;;36.70;17.20;;;;;;;-2.30;71.45;101473.61;1712055;83;21028;-72
2022/03/09 01:23:11;;;;;;;35.30;16.77;;;;;;;-2.33;71.38;101477.36;1712384;83;21080;-72
2022/03/09 01:25:38;;;;;;;33.30;15.93;;;;;;;-2.36;71.41;101470.81;1712051;83;21133;-72
2022/03/09 01:28:05;;;;;;;27.07;14.07;;;;;;;-2.38;71.46;101468.63;1712358;83;21028;-72
2022/03/09 01:30:32;;;;;;;34.03;15.73;;;;;;;-2.39;71.47;101474.98;1712024;83;21036;-72
2022/03/09 01:32:59;;;;;;;35.80;16.00;;;;;;;-2.41;71.55;101474.95;1712426;83;21045;-77
2022/03/09 01:35:26;;;;;;;36.83;17.07;;;;;;;-2.42;71.52;101471.04;1712079;83;21028;-72
2022/03/09 01:37:53;;;;;;;42.47;18.13;;;;;;;-2.46;71.51;101472.64;1712367;83;21463;-72
2022/03/09 01:40:20;;;;;;;47.43;22.10;;;;;;;-2.48;71.62;101467.86;1712188;83;21008;-78
2022/03/09 01:42:47;;;;;;;43.83;21.37;;;;;;;-2.48;71.64;101470.42;1712386;83;20948;-72
2022/03/09 01:45:18;;;;;;;44.60;21.30;;;;;;;-2.51;71.56;101467.77;1712153;83;20944;-71
2022/03/09 01:47:45;;;;;;;40.53;21.43;;;;;;;-2.52;71.62;101469.46;1712315;83;21040;-71
2022/03/09 01:50:13;;;;;;;54.03;24.73;;;;;;;-2.56;71.57;101463.75;1712183;83;21306;-71
2022/03/09 01:52:41;;;;;;;49.70;23.83;;;;;;;-2.58;71.70;101466.66;1712407;83;21032;-72
2022/03/09 01:55:10;;;;;;;51.37;24.37;;;;;;;-2.59;71.72;101459.80;1712267;83;20993;-72
2022/03/09 01:57:37;;;;;;;58.07;25.50;;;;;;;-2.61;71.70;101455.02;1712521;83;21483;-72
2022/03/09 02:00:08;;;;;;;70.63;26.70;;;;;;;-2.62;71.75;101462.69;1712199;83;21012;-72
2022/03/09 02:02:34;;;;;;;66.45;25.30;;;;;;;-2.65;71.70;101452.31;1712623;83;21848;-72
2022/03/09 02:05:04;;;;;;;92.47;31.17;;;;;;;-2.68;71.72;101454.37;1712150;83;21020;-72
2022/03/09 02:10:23;;;;;;;55.00;24.13;;;;;;;-2.70;71.92;101458.15;1712370;83;21501;-71
2022/03/09 02:12:51;;;;;;;63.80;25.80;;;;;;;-2.70;72.11;101460.72;1712561;83;21005;-72
2022/03/09 02:15:18;;;;;;;53.03;23.57;;;;;;;-2.69;72.05;101456.45;1712205;83;21139;-72
2022/03/09 02:17:45;;;;;;;43.20;21.30;;;;;;;-2.72;72.00;101455.06;1712700;83;21045;-72
2022/03/09 02:20:13;;;;;;;44.83;19.93;;;;;;;-2.74;72.02;101459.30;1714992;83;21020;-73
2022/03/09 02:22:42;;;;;;;42.20;21.03;;;;;;;-2.76;71.96;101460.52;1715000;83;21040;-72
2022/03/09 02:25:15;;;;;;;45.70;20.97;;;;;;;-2.77;72.05;101463.02;1715089;83;21552;-72
2022/03/09 02:27:44;;;;;;;52.20;22.27;;;;;;;-2.78;72.12;101467.70;1715027;83;21098;-73
2022/03/09 02:30:17;;;;;;;52.43;23.97;;;;;;;-2.81;72.06;101464.61;1715093;83;21028;-71
2022/03/09 02:32:49;;;;;;;49.67;24.63;;;;;;;-2.82;72.09;101464.16;1715378;83;21024;-72
2022/03/09 02:35:19;;;;;;;50.83;24.13;;;;;;;-2.83;72.07;101466.24;1715259;83;21021;-72
2022/03/09 02:37:47;;;;;;;48.00;23.70;;;;;;;-2.87;72.00;101468.25;1715081;83;21067;-73
2022/03/09 02:40:17;;;;;;;48.83;23.33;;;;;;;-2.89;72.00;101467.73;1715239;83;21110;-72
2022/03/09 02:42:45;;;;;;;53.13;23.67;;;;;;;-2.93;72.04;101466.35;1714892;83;21025;-72
2022/03/09 02:45:12;;;;;;;47.50;23.97;;;;;;;-2.94;72.11;101462.05;1715456;83;21024;-72
2022/03/09 02:47:43;;;;;;;50.57;24.30;;;;;;;-2.94;72.24;101465.00;1715556;83;21473;-72
2022/03/09 02:50:10;;;;;;;46.20;23.18;;;;;;;-2.95;72.25;101461.98;1715395;83;22259;-72
2022/03/09 02:52:39;;;;;;;51.13;24.37;;;;;;;-2.94;72.37;101467.56;1714936;83;21132;-72
2022/03/09 02:55:08;;;;;;;46.37;23.57;;;;;;;-2.93;72.36;101469.33;1715262;83;21040;-72
2022/03/09 02:57:36;;;;;;;51.93;24.80;;;;;;;-2.94;72.30;101467.56;1714958;83;21098;-74
2022/03/09 03:00:07;;;;;;;49.03;23.47;;;;;;;-2.96;72.28;101459.83;1715237;83;21493;-72
2022/03/09 03:02:36;;;;;;;51.27;24.10;;;;;;;-3.00;72.15;101459.25;1714924;83;21028;-72
2022/03/09 03:05:07;;;;;;;46.77;24.03;;;;;;;-3.01;72.27;101459.21;1715564;83;21067;-72
2022/03/09 03:07:34;;;;;;;;;;;;;;;-3.03;72.22;101456.99;1717485;83;21059;-72
2022/03/09 03:10:03;;;;;;;51.63;22.83;;;;;;;-3.04;72.35;101461.67;1715220;83;20176;-72
2022/03/09 03:12:31;;;;;;;44.90;23.40;;;;;;;-3.06;72.42;101455.19;1715224;83;20917;-72
2022/03/09 03:14:58;;;;;;;55.70;23.83;;;;;;;-3.07;72.36;101462.84;1714947;83;21457;-72
2022/03/09 03:17:25;;;;;;;50.87;24.23;;;;;;;-3.09;72.39;101461.50;1715155;83;21093;-72
2022/03/09 03:19:53;;;;;;;51.97;23.43;;;;;;;-3.10;72.29;101462.71;1716972;83;20981;-73
2022/03/09 03:22:19;;;;;;;48.00;23.00;;;;;;;-3.12;72.27;101463.09;1717254;83;21008;-72
2022/03/09 03:24:46;;;;;;;46.53;23.37;;;;;;;-3.12;72.38;101461.81;1717600;83;20981;-72
2022/03/09 03:27:14;;;;;;;46.60;21.10;;;;;;;-3.12;72.48;101464.37;1717590;83;21016;-72
2022/03/09 03:29:41;;;;;;;40.43;19.43;;;;;;;-3.11;72.68;101465.69;1717336;83;21312;-74
2022/03/09 03:32:10;;;;;;;27.40;12.97;;;;;;;-3.05;73.14;101465.90;1717397;83;21023;-73
2022/03/09 03:34:37;;;;;;;25.47;13.37;;;;;;;-2.92;73.89;101462.09;1717587;83;21362;-72
2022/03/09 03:37:05;;;;;;;27.70;12.63;;;;;;;-2.69;74.50;101462.86;1717309;83;21016;-73
2022/03/09 03:39:32;;;;;;;22.83;11.00;;;;;;;-2.44;74.84;101459.42;1717547;83;21569;-73
2022/03/09 03:42:00;;;;;;;21.87;10.70;;;;;;;-2.25;74.79;101457.05;1717655;83;21865;-73
2022/03/09 03:44:27;;;;;;;23.87;10.50;;;;;;;-2.08;74.68;101460.14;1717203;83;21494;-72
2022/03/09 03:46:54;;;;;;;22.70;11.87;;;;;;;-1.93;74.54;101461.92;1717429;83;21455;-72
2022/03/09 03:49:21;;;;;;;22.53;10.97;;;;;;;-1.81;74.39;101461.41;1717222;83;21032;-73
2022/03/09 03:51:48;;;;;;;22.33;10.73;;;;;;;-1.70;74.22;101461.32;1717662;83;21482;-72
2022/03/09 03:54:15;;;;;;;26.13;11.90;;;;;;;-1.62;74.01;101460.27;1717251;83;21246;-72
2022/03/09 03:56:42;;;;;;;18.80;10.83;;;;;;;-1.53;73.97;101454.52;1717491;83;20996;-73
2022/03/09 03:59:09;;;;;;;23.33;12.07;;;;;;;-1.45;73.98;101456.48;1717179;83;21072;-72
2022/03/09 04:01:36;;;;;;;20.57;10.77;;;;;;;-1.37;73.89;101457.58;1717559;83;21470;-72
2022/03/09 04:04:04;;;;;;;19.50;10.77;;;;;;;-1.28;73.91;101459.53;1717302;83;21063;-73
2022/03/09 04:06:31;;;;;;;20.10;11.27;;;;;;;-1.18;73.75;101460.68;1717534;83;21366;-72
2022/03/09 04:08:59;;;;;;;20.90;10.87;;;;;;;-1.13;73.68;101456.54;1717221;83;20988;-73
2022/03/09 04:11:26;;;;;;;22.53;10.97;;;;;;;-1.08;73.62;101451.50;1717547;83;21012;-73
2022/03/09 04:13:53;;;;;;;19.20;10.27;;;;;;;-1.04;73.52;101454.20;1717290;83;21011;-73
2022/03/09 04:16:20;;;;;;;26.50;12.03;;;;;;;-0.98;73.51;101458.65;1717470;83;21004;-73
2022/03/09 04:18:47;;;;;;;31.50;14.77;;;;;;;-0.95;73.42;101456.16;1717120;83;21139;-72
2022/03/09 04:21:14;;;;;;;27.33;13.10;;;;;;;-0.92;73.51;101458.38;1717247;83;21502;-73
2022/03/09 04:23:41;;;;;;;23.10;12.67;;;;;;;-0.87;73.50;101466.66;1717309;83;21540;-72
2022/03/09 04:26:08;;;;;;;21.53;11.63;;;;;;;-0.85;73.24;101462.01;1717300;83;20978;-73
2022/03/09 04:28:36;;;;;;;18.37;11.20;;;;;;;-0.84;73.17;101467.60;1717273;83;21024;-72
2022/03/09 04:31:03;;;;;;;23.20;12.10;;;;;;;-0.83;73.09;101468.08;1717275;83;21614;-73
2022/03/09 04:33:31;;;;;;;22.47;12.10;;;;;;;-0.83;73.00;101465.89;1717131;83;20997;-73
2022/03/09 04:35:58;;;;;;;23.33;12.67;;;;;;;-0.79;73.02;101475.45;1717277;83;21019;-73
2022/03/09 04:38:25;;;;;;;22.23;11.43;;;;;;;-0.76;72.97;101480.27;1717144;83;21016;-73
2022/03/09 04:40:55;;;;;;;55.70;30.33;;;;;;;-0.74;72.93;101484.18;1717217;83;21004;-72
2022/03/09 04:43:23;;;;;;;86.10;40.70;;;;;;;-0.74;72.82;101488.91;1717420;83;21212;-74
2022/03/09 04:45:50;;;;;;;65.07;33.53;;;;;;;-0.74;72.80;101493.19;1717149;83;21036;-73
2022/03/09 04:48:17;;;;;;;30.93;17.40;;;;;;;-0.76;72.76;101490.98;1717536;83;21020;-74
2022/03/09 04:50:44;;;;;;;33.50;18.17;;;;;;;-0.80;72.63;101491.33;1717278;83;21075;-73
2022/03/09 04:53:11;;;;;;;33.73;19.07;;;;;;;-0.88;72.62;101487.67;1717469;83;21004;-75
2022/03/09 04:55:38;;;;;;;82.90;46.83;;;;;;;-0.94;72.65;101484.52;1717333;83;21787;-73
2022/03/09 04:58:05;;;;;;;79.23;45.50;;;;;;;-0.99;72.79;101488.66;1717350;83;21461;-73
2022/03/09 05:00:32;;;;;;;87.87;51.67;;;;;;;-1.03;72.56;101488.52;1717163;83;21020;-73
2022/03/09 05:03:00;;;;;;;70.30;41.30;;;;;;;-1.09;72.66;101490.93;1717527;83;21051;-73
2022/03/09 05:05:27;;;;;;;43.53;23.83;;;;;;;-1.07;72.92;101488.86;1717279;83;20996;-73
2022/03/09 05:07:54;;;;;;;61.47;29.03;;;;;;;-1.03;73.01;101493.67;1717408;83;21537;-73
2022/03/09 05:10:21;;;;;;;42.27;20.17;;;;;;;-1.00;73.08;101490.79;1717180;83;21497;-73
2022/03/09 05:12:48;;;;;;;37.43;19.17;;;;;;;-0.99;73.09;101489.08;1717498;83;21061;-73
2022/03/09 05:15:15;;;;;;;43.77;22.10;;;;;;;-0.98;72.99;101490.39;1717243;83;21000;-74
2022/03/09 05:17:45;;;;;;;58.27;28.03;;;;;;;-1.05;72.76;101483.35;1717552;83;21008;-74
2022/03/09 05:20:15;;;;;;;52.50;28.03;;;;;;;-1.15;72.48;101489.92;1715368;83;21133;-72
2022/03/09 05:22:43;;;;;;;53.92;26.48;;;;;;;-1.26;72.16;101495.19;1715017;83;20989;-73
2022/03/09 05:25:10;;;;;;;73.57;29.83;;;;;;;-1.32;72.38;101496.72;1714908;83;21481;-74
2022/03/09 05:27:38;;;;;;;73.27;29.40;;;;;;;-1.32;72.73;101506.59;1715049;83;21027;-73
2022/03/09 05:30:09;;;;;;;116.37;45.13;;;;;;;-1.28;72.94;101508.41;1715123;83;21036;-72
2022/03/09 05:32:40;;;;;;;44.03;20.72;;;;;;;-1.20;73.16;101512.08;1715246;83;21183;-72
2022/03/09 05:35:09;;;;;;;29.53;15.67;;;;;;;-1.13;73.22;101512.72;1714927;83;21499;-73
2022/03/09 05:37:40;;;;;;;34.17;16.27;;;;;;;-1.08;73.13;101509.39;1714992;83;21024;-72
2022/03/09 05:40:12;;;;;;;35.63;17.17;;;;;;;-1.06;73.06;101507.32;1714930;83;21035;-73
2022/03/09 05:42:40;;;;;;;43.13;20.83;;;;;;;-1.05;73.00;101510.76;1715136;83;21032;-73
2022/03/09 05:45:10;;;;;;;82.43;34.13;;;;;;;-1.07;72.97;101510.73;1715062;83;21251;-72
2022/03/09 05:47:37;;;;;;;109.05;40.60;;;;;;;-1.07;73.04;101503.02;1715347;83;21023;-72
2022/03/09 05:50:08;;;;;;;105.60;40.30;;;;;;;-1.04;73.03;101513.81;1715063;83;21012;-73
2022/03/09 05:52:35;;;;;;;123.23;46.57;;;;;;;-1.02;73.09;101510.45;1715271;83;21016;-72
2022/03/09 05:55:02;;;;;;;125.40;50.80;;;;;;;-1.01;73.08;101511.32;1715128;83;21024;-73
2022/03/09 05:57:30;;;;;;;59.03;26.67;;;;;;;-0.97;73.12;101516.61;1715271;83;21113;-73
2022/03/09 05:59:59;;;;;;;61.70;25.80;;;;;;;-0.93;73.18;101514.56;1694250;83;38564;-73
2022/03/09 06:02:26;;;;;;;60.53;26.93;;;;;;;-0.89;73.14;101514.22;1715060;83;21468;-74
2022/03/09 06:04:53;;;;;;;43.60;20.80;;;;;;;-0.86;73.13;101524.59;1714977;83;21008;-74
2022/03/09 06:07:20;;;;;;;31.23;16.20;;;;;;;-0.82;73.34;101519.14;1714908;83;21005;-82
2022/03/09 06:09:49;;;;;;;30.17;16.80;;;;;;;-0.78;73.52;101521.81;1715065;83;21131;-83
2022/03/09 06:12:17;;;;;;;132.13;48.17;;;;;;;-0.72;73.73;101525.88;1714149;83;21028;-79
2022/03/09 06:14:45;;;;;;;41.70;21.50;;;;;;;-0.69;73.59;101523.38;1687084;83;21040;-82
2022/03/09 06:17:12;;;;;;;45.00;21.60;;;;;;;-0.65;73.67;101524.73;1689703;83;21053;-77
2022/03/09 06:19:40;;;;;;;59.70;26.97;;;;;;;-0.59;73.65;101537.35;1691330;83;21544;-83
2022/03/09 06:22:07;;;;;;;47.60;23.87;;;;;;;-0.55;73.49;101533.17;1694118;83;21201;-82
2022/03/09 06:24:34;;;;;;;62.87;24.60;;;;;;;-0.50;73.40;101535.43;1686273;85;21442;-82
2022/03/09 06:27:01;;;;;;;58.00;24.70;;;;;;;-0.45;73.51;101540.29;1690400;83;22037;-81
2022/03/09 06:29:28;;;;;;;45.97;21.07;;;;;;;-0.37;73.48;101541.78;1705128;83;21071;-82
2022/03/09 06:31:55;;;;;;;38.00;18.90;;;;;;;-0.30;73.48;101538.13;1713864;83;21697;-82
2022/03/09 06:34:22;;;;;;;52.27;23.67;;;;;;;-0.21;73.43;101540.48;1714197;83;22333;-82
2022/03/09 06:36:51;;;;;;;75.60;39.37;;;;;;;-0.15;73.36;101538.05;1701980;83;22036;-81
2022/03/09 06:39:17;;;;;;;70.67;33.10;;;;;;;-0.09;73.31;101540.77;1687970;83;21477;-81
2022/03/09 06:41:46;;;;;;;42.33;20.20;;;;;;;-0.03;73.23;101542.20;1690616;83;21072;-78
2022/03/09 06:44:15;;;;;;;34.40;16.43;;;;;;;0.04;73.15;101541.53;1686229;85;21036;-81
2022/03/09 06:46:43;;;;;;;27.70;15.07;;;;;;;0.09;73.14;101539.95;1686451;85;21880;-81
2022/03/09 06:49:10;;;;;;;30.67;15.67;;;;;;;0.17;73.12;101540.14;1686164;85;21021;-82
2022/03/09 06:51:37;;;;;;;29.60;16.27;;;;;;;0.23;73.08;101540.27;1686410;84;21084;-82
2022/03/09 06:54:04;;;;;;;38.17;17.03;;;;;;;0.30;73.03;101537.41;1686402;85;21597;-83
2022/03/09 06:56:31;;;;;;;34.27;18.80;;;;;;;0.34;73.02;101542.69;1686405;85;20978;-82
2022/03/09 06:58:58;;;;;;;43.17;21.30;;;;;;;0.41;72.97;101541.09;1686443;84;21113;-81
2022/03/09 07:01:25;;;;;;;38.67;20.67;;;;;;;0.47;72.91;101550.69;1686263;85;21013;-82
2022/03/09 07:03:52;;;;;;;38.83;19.90;;;;;;;0.53;72.91;101546.98;1686756;85;20985;-80
2022/03/09 07:06:21;;;;;;;32.83;18.23;;;;;;;0.58;72.85;101545.34;1686131;84;21033;-81
2022/03/09 07:08:49;;;;;;;28.23;15.63;;;;;;;0.64;72.83;101542.50;1686596;85;21004;-82
2022/03/09 07:11:17;;;;;;;28.47;14.87;;;;;;;0.72;72.92;101539.20;1690289;83;21211;-81
2022/03/09 07:13:44;;;;;;;27.30;14.00;;;;;;;0.79;72.78;101537.21;1686315;85;21520;-79
2022/03/09 07:16:11;;;;;;;35.87;17.43;;;;;;;0.85;72.77;101540.78;1686167;84;20947;-81
2022/03/09 07:18:39;;;;;;;41.93;19.67;;;;;;;0.91;72.72;101541.33;1686207;85;21020;-79
2022/03/09 07:21:06;;;;;;;32.63;16.47;;;;;;;0.99;72.72;101541.49;1686205;85;21524;-77
2022/03/09 07:23:32;;;;;;;32.40;16.47;;;;;;;1.06;72.74;101539.07;1686502;85;21103;-81
2022/03/09 07:25:59;;;;;;;28.73;15.60;;;;;;;1.15;72.78;101540.96;1686304;83;21064;-82
2022/03/09 07:28:26;;;;;;;28.70;16.73;;;;;;;1.22;72.69;101535.09;1701397;83;21010;-82
2022/03/09 07:30:53;;;;;;;30.30;16.17;;;;;;;1.30;72.48;101532.63;1686345;85;21026;-81
2022/03/09 07:33:20;;;;;;;27.50;16.27;;;;;;;1.37;72.44;101526.75;1686473;85;21021;-80
2022/03/09 07:35:47;;;;;;;30.10;16.10;;;;;;;1.43;72.29;101530.73;1686278;85;21150;-78
2022/03/09 07:38:15;;;;;;;33.80;17.63;;;;;;;1.51;72.15;101539.50;1686268;85;21073;-81
2022/03/09 07:40:43;;;;;;;32.13;16.23;;;;;;;1.58;72.15;101539.20;1686305;85;21038;-82
2022/03/09 07:43:10;;;;;;;31.77;16.63;;;;;;;1.66;72.19;101544.06;1686377;85;21013;-81
2022/03/09 07:45:37;;;;;;;31.87;16.77;;;;;;;1.74;72.07;101539.03;1686245;85;21036;-81
2022/03/09 07:48:04;;;;;;;28.20;16.13;;;;;;;1.84;71.92;101541.38;1689980;83;21111;-81
2022/03/09 07:50:31;;;;;;;28.23;15.67;;;;;;;1.91;71.81;101539.31;1685887;85;21009;-76
2022/03/09 07:52:58;;;;;;;29.03;16.30;;;;;;;2.00;71.77;101538.20;1686234;85;21004;-81
2022/03/09 07:55:25;;;;;;;30.00;16.10;;;;;;;2.08;71.59;101535.31;1686472;84;21021;-81
2022/03/09 07:57:52;;;;;;;26.67;15.47;;;;;;;2.16;71.42;101538.00;1712832;83;20980;-80
2022/03/09 08:00:19;;;;;;;27.97;14.97;;;;;;;2.22;71.34;101529.06;1714841;83;21569;-81
2022/03/09 08:02:46;;;;;;;26.93;14.93;;;;;;;2.29;71.26;101534.75;1715187;83;21008;-81
2022/03/09 08:05:14;;;;;;;28.33;16.60;;;;;;;2.39;71.20;101535.35;1715095;83;21068;-80
2022/03/09 08:07:41;;;;;;;24.47;14.13;;;;;;;2.50;71.23;101535.94;1715047;83;20988;-80
2022/03/09 08:10:10;;;;;;;21.40;14.03;;;;;;;2.59;71.14;101536.05;1703578;83;21021;-81
2022/03/09 08:12:37;;;;;;;25.27;13.97;;;;;;;2.71;70.89;101528.87;1680983;85;21133;-81
2022/03/09 08:15:06;;;;;;;25.87;14.80;;;;;;;2.80;70.76;101531.17;1680959;85;20956;-80
2022/03/09 08:17:33;;;;;;;23.13;13.63;;;;;;;2.91;70.52;101526.13;1681030;85;21032;-80
2022/03/09 08:20:00;;;;;;;23.77;13.50;;;;;;;3.00;70.39;101526.23;1680693;85;21041;-81
2022/03/09 08:22:27;;;;;;;22.63;13.83;;;;;;;3.13;70.33;101526.83;1680799;85;21032;-81
2022/03/09 08:24:54;;;;;;;24.23;14.03;;;;;;;3.26;70.28;101529.11;1680901;85;21526;-79
2022/03/09 08:27:21;;;;;;;27.80;13.87;;;;;;;3.38;70.00;101532.69;1680900;85;21031;-75
2022/03/09 08:29:50;;;;;;;22.37;13.47;;;;;;;3.50;70.01;101525.06;1680874;85;20993;-78
2022/03/09 08:32:21;;;;;;;23.53;12.53;;;;;;;3.65;69.87;101528.22;1681017;85;21001;-78
2022/03/09 08:34:48;;;;;;;23.53;12.37;;;;;;;3.79;69.47;101535.26;1680818;85;21036;-81
2022/03/09 08:37:16;;;;;;;21.53;13.23;;;;;;;3.89;69.01;101532.33;1681088;85;21204;-77
2022/03/09 08:39:45;;;;;;;24.60;13.77;;;;;;;3.98;68.73;101533.70;1680638;85;21049;-78
2022/03/09 08:42:11;;;;;;;23.93;14.37;;;;;;;4.12;68.73;101537.70;1680948;84;21032;-78
2022/03/09 08:44:38;;;;;;;25.70;13.90;;;;;;;4.24;68.54;101535.64;1680983;85;21000;-76
2022/03/09 08:47:06;;;;;;;24.07;14.73;;;;;;;4.37;68.41;101530.95;1681026;85;21040;-77
2022/03/09 08:49:33;;;;;;;38.90;21.33;;;;;;;4.51;68.33;101532.34;1680715;85;21524;-77
2022/03/09 08:52:00;;;;;;;33.50;19.07;;;;;;;4.67;68.18;101530.70;1680893;85;21488;-76
2022/03/09 08:54:27;;;;;;;28.90;16.57;;;;;;;4.80;67.70;101520.83;1680841;85;21513;-80
2022/03/09 08:56:54;;;;;;;43.03;21.37;;;;;;;4.89;67.38;101523.45;1682215;84;21046;-75
2022/03/09 08:59:21;;;;;;;24.53;14.43;;;;;;;5.02;67.38;101523.52;1685708;84;21564;-83
2022/03/09 09:01:49;;;;;;;34.33;18.37;;;;;;;5.17;67.18;101522.26;1686299;83;21191;-82
2022/03/09 09:04:16;;;;;;;22.97;13.60;;;;;;;5.32;66.83;101525.32;1666429;85;21089;-80
2022/03/09 09:06:44;;;;;;;23.27;13.87;;;;;;;5.48;66.46;101526.23;1686427;85;21032;-78
2022/03/09 09:09:10;;;;;;;23.50;14.27;;;;;;;5.61;66.13;101528.44;1686218;85;20986;-77
2022/03/09 09:11:38;;;;;;;23.87;13.33;;;;;;;5.71;65.65;101528.45;1686379;85;21029;-81
2022/03/09 09:14:04;;;;;;;32.73;17.83;;;;;;;5.83;65.54;101530.62;1686159;85;21815;-84
2022/03/09 09:16:31;;;;;;;46.33;22.43;;;;;;;6.00;65.30;101534.13;1686292;85;21000;-80
2022/03/09 09:18:58;;;;;;;41.33;22.20;;;;;;;6.18;64.97;101537.14;1685976;85;21005;-89
2022/03/09 09:21:25;;;;;;;23.07;13.77;;;;;;;6.34;64.74;101529.75;1691789;84;21462;-75
2022/03/09 09:23:52;;;;;;;22.50;13.40;;;;;;;6.51;64.12;101536.67;1693504;84;21490;-81
2022/03/09 09:26:19;;;;;;;23.10;14.03;;;;;;;6.64;63.72;101534.03;1693680;84;21122;-80
2022/03/09 09:28:46;;;;;;;33.93;16.37;;;;;;;6.76;63.22;101532.26;1693535;84;21016;-83
2022/03/09 09:31:13;;;;;;;30.43;17.57;;;;;;;6.91;63.18;101531.78;1693870;84;21466;-76
2022/03/09 09:33:40;;;;;;;36.43;20.60;;;;;;;7.11;62.95;101527.77;1693762;84;21032;-78
2022/03/09 09:36:07;;;;;;;22.90;14.33;;;;;;;7.28;62.58;101530.30;1693874;84;21024;-89
2022/03/09 09:38:34;;;;;;;36.20;21.13;;;;;;;7.45;62.49;101526.28;1694036;84;21549;-82
2022/03/09 09:41:01;;;;;;;24.10;14.23;;;;;;;7.64;62.20;101519.20;1694012;84;21013;-79
2022/03/09 09:43:29;;;;;;;24.00;13.63;;;;;;;7.80;61.56;101515.61;1693936;84;20978;-83
2022/03/09 09:45:57;;;;;;;34.17;18.57;;;;;;;7.92;61.06;101519.00;1693841;84;21028;-82
2022/03/09 09:48:24;;;;;;;22.37;13.27;;;;;;;8.04;60.89;101517.61;1693986;84;21024;-82
2022/03/09 09:50:52;;;;;;;35.30;18.70;;;;;;;8.19;60.82;101514.84;1694025;84;21061;-81
2022/03/09 09:53:20;;;;;;;30.47;16.03;;;;;;;8.37;60.53;101520.77;1693681;84;21553;-83
2022/03/09 09:55:46;;;;;;;27.13;14.27;;;;;;;8.52;60.05;101525.88;1693918;84;21009;-83
2022/03/09 09:58:14;;;;;;;27.40;16.23;;;;;;;8.66;59.67;101521.81;1694124;84;21080;-75
2022/03/09 10:00:44;;;;;;;17.33;12.27;;;;;;;8.84;59.60;101521.61;1693683;84;21306;-76
2022/03/09 10:03:11;;;;;;;21.48;14.90;;;;;;;8.95;58.92;101516.22;1694094;84;21080;-78
2022/03/09 10:05:38;;;;;;;15.60;10.47;;;;;;;9.11;58.65;101518.20;1693980;84;21463;-75
2022/03/09 10:08:10;;;;;;;24.40;14.03;;;;;;;9.24;58.24;101520.23;1708865;83;21031;-77
2022/03/09 10:11:01;;;;;;;24.27;14.00;;;;;;;9.38;57.90;101517.83;1714086;83;21032;-81
2022/03/09 10:13:40;;;;;;;26.33;14.07;;;;;;;9.56;57.77;101515.83;1707008;83;21591;-84
2022/03/09 10:16:20;;;;;;;27.37;15.50;;;;;;;9.73;57.14;101520.38;1694120;83;22001;-83
2022/03/09 10:18:56;;;;;;;18.65;11.30;;;;;;;9.95;57.04;101520.02;1694040;84;21080;-83
2022/03/09 10:21:35;;;;;;;18.53;11.37;;;;;;;10.21;56.66;101519.14;1702649;83;21012;-78
2022/03/09 10:24:09;;;;;;;12.60;9.53;;;;;;;10.40;56.33;101513.61;1722048;83;20972;-76
2022/03/09 10:26:42;;;;;;;14.97;9.97;;;;;;;10.52;55.42;101509.88;1702618;84;21051;-73
2022/03/09 10:29:13;;;;;;;21.15;13.78;;;;;;;10.64;54.96;101507.02;1674342;85;21125;-73
2022/03/09 10:31:44;;;;;;;17.07;12.95;;;;;;;10.81;54.89;101501.01;1707920;84;21310;-73
2022/03/09 10:34:22;;;;;;;12.43;8.88;;;;;;;11.05;54.69;101498.75;1707849;84;21035;-73
2022/03/09 10:37:05;;;;;;;11.00;8.48;;;;;;;11.30;54.38;101496.45;1707898;84;21070;-73
2022/03/09 10:39:37;;;;;;;10.43;8.35;;;;;;;11.49;53.47;101510.03;1707818;84;21015;-73
2022/03/09 10:42:24;;;;;;;13.18;8.85;;;;;;;11.61;53.10;101504.47;1707796;84;21977;-72
2022/03/09 10:44:52;;;;;;;13.25;9.35;;;;;;;11.71;52.80;101497.26;1707883;84;20999;-73
2022/03/09 10:47:41;;;;;;;20.15;15.10;;;;;;;11.83;52.09;101499.56;1707812;84;21042;-73
2022/03/09 10:50:28;;;;;;;24.65;17.57;;;;;;;11.89;51.65;101499.47;1708062;84;20988;-73
2022/03/09 10:53:08;;;;;;;19.62;15.63;;;;;;;12.07;51.52;101490.70;1707855;84;21023;-72
2022/03/09 10:55:37;;;;;;;24.87;16.67;;;;;;;12.27;51.02;101500.23;1708375;84;21136;-73
2022/03/09 10:58:15;;;;;;;20.45;15.30;;;;;;;12.47;50.88;101499.27;1707975;84;21082;-73
2022/03/09 11:00:49;;;;;;;18.90;13.78;;;;;;;12.72;50.68;101492.02;1707810;84;21027;-73
2022/03/09 11:03:29;;;;;;;11.65;9.03;;;;;;;12.88;50.08;101493.27;1708019;84;21043;-72
2022/03/09 11:06:01;;;;;;;12.05;8.85;;;;;;;12.98;49.68;101491.70;1707587;84;21035;-73
2022/03/09 11:08:34;;;;;;;11.65;8.60;;;;;;;13.08;49.16;101494.45;1707753;84;21137;-73
2022/03/09 11:11:02;;;;;;;18.40;12.33;;;;;;;13.06;48.53;101490.56;1707997;84;21413;-73
2022/03/09 11:13:32;;;;;;;16.27;11.95;;;;;;;13.20;48.36;101495.41;1707769;84;20995;-72
2022/03/09 11:16:00;;;;;;;15.45;11.73;;;;;;;13.34;48.31;101497.66;1708007;84;21004;-73
2022/03/09 11:18:30;;;;;;;15.35;11.57;;;;;;;13.37;47.47;101492.28;1708131;84;21023;-73
2022/03/09 11:21:02;;;;;;;12.68;9.35;;;;;;;13.41;47.63;101488.63;1705633;84;21998;-74